createdAt,value
2019-02-06T11:14:12.500Z,99.90
2019-02-06T11:16:42.617Z,86.30
2019-02-06T11:19:11.509Z,86.70
2019-02-06T11:21:40.372Z,97.80
2019-02-06T11:24:09.290Z,93.90
2019-02-06T11:26:38.953Z,85.50
2019-02-06T11:29:07.994Z,91.00
2019-02-06T11:31:37.000Z,89.60
2019-02-06T11:34:05.980Z,88.50
2019-02-06T11:36:34.826Z,86.70
2019-02-06T11:39:07.346Z,85.90
2019-02-06T11:41:36.237Z,92.70
2019-02-06T11:44:05.743Z,93.00
2019-02-06T11:46:35.451Z,91.80
2019-02-06T11:49:06.012Z,93.90
2019-02-06T11:51:34.890Z,95.80
2019-02-06T11:54:04.683Z,95.10
2019-02-06T11:56:33.574Z,99.40
2019-02-06T11:59:03.191Z,95.30
2019-02-06T12:01:32.688Z,97.50
2019-02-06T12:04:01.578Z,99.50
2019-02-06T12:06:30.411Z,98.70
2019-02-06T12:08:59.359Z,98.10
2019-02-06T12:11:28.455Z,92.90
2019-02-06T12:13:57.447Z,93.70
2019-02-06T12:16:26.525Z,94.80
2019-02-06T12:18:56.358Z,99.90
2019-02-06T12:21:25.901Z,95.50
2019-02-06T12:23:54.855Z,94.30
2019-02-06T12:26:23.847Z,95.90
2019-02-06T12:28:52.730Z,96.30
2019-02-06T12:31:21.584Z,97.30
2019-02-06T12:33:50.928Z,94.50
2019-02-06T12:36:19.923Z,99.90
2019-02-06T12:38:53.744Z,96.70
2019-02-06T12:41:19.444Z,97.70
2019-02-06T12:43:48.529Z,96.90
2019-02-06T12:46:17.431Z,99.90
2019-02-06T12:48:46.424Z,96.50
2019-02-06T12:51:15.519Z,97.60
2019-02-06T12:53:44.519Z,97.30
2019-02-06T12:56:13.513Z,95.90
2019-02-06T12:58:42.501Z,95.10
2019-02-06T13:01:11.591Z,97.40
2019-02-06T13:03:40.589Z,96.00
2019-02-06T13:06:09.503Z,95.30
2019-02-06T13:08:39.292Z,99.80
2019-02-06T13:11:08.185Z,96.10
2019-02-06T13:13:37.073Z,99.70
2019-02-06T13:16:06.067Z,97.50
2019-02-06T13:18:34.957Z,98.10
2019-02-06T13:21:03.848Z,99.90
2019-02-06T13:23:32.739Z,99.10
2019-02-06T13:26:01.793Z,99.50
2019-02-06T13:28:30.829Z,99.90
2019-02-06T13:30:59.717Z,99.90
2019-02-06T13:33:28.608Z,99.90
2019-02-06T13:35:57.499Z,99.90
2019-02-06T13:40:55.793Z,99.80
2019-02-06T13:43:24.785Z,99.30
2019-02-06T13:45:53.882Z,99.90
2019-02-06T13:48:22.884Z,99.90
2019-02-06T13:50:52.073Z,99.90
2019-02-06T14:00:48.572Z,99.90
2019-02-06T14:03:18.212Z,99.90
2019-02-06T14:05:48.135Z,99.90
2019-02-06T14:08:17.792Z,99.90
2019-02-06T14:10:59.912Z,99.90
2019-02-06T14:13:17.721Z,99.90
2019-02-06T14:15:48.765Z,99.90
2019-02-06T14:18:37.930Z,99.90
2019-02-06T14:21:08.459Z,99.90
2019-02-06T14:23:40.259Z,99.90
2019-02-06T14:26:20.578Z,99.90
2019-02-06T14:28:58.479Z,99.90
2019-02-06T14:31:45.718Z,99.90
